sensor_id;sensor_type;location;lat;lon;timestamp;temperature;humidity
80367;DHT22;70058;42.660;23.366;2023-08-30T00:00:41;23.90;51.10
80367;DHT22;70058;42.660;23.366;2023-08-30T00:03:07;23.90;51.30
80367;DHT22;70058;42.660;23.366;2023-08-30T00:05:32;23.90;51.30
80367;DHT22;70058;42.660;23.366;2023-08-30T00:07:58;23.80;51.10
80367;DHT22;70058;42.660;23.366;2023-08-30T00:10:24;23.90;50.40
80367;DHT22;70058;42.660;23.366;2023-08-30T00:12:50;23.90;50.50
80367;DHT22;70058;42.660;23.366;2023-08-30T00:15:16;23.90;50.40
80367;DHT22;70058;42.660;23.366;2023-08-30T00:17:41;23.90;50.10
80367;DHT22;70058;42.660;23.366;2023-08-30T00:20:08;23.80;50.40
80367;DHT22;70058;42.660;23.366;2023-08-30T00:22:34;23.80;50.90
80367;DHT22;70058;42.660;23.366;2023-08-30T00:25:01;23.70;50.80
80367;DHT22;70058;42.660;23.366;2023-08-30T00:27:26;23.70;50.50
80367;DHT22;70058;42.660;23.366;2023-08-30T00:29:52;23.60;51.30
80367;DHT22;70058;42.660;23.366;2023-08-30T00:32:18;23.40;52.30
80367;DHT22;70058;42.660;23.366;2023-08-30T00:34:43;23.20;52.00
80367;DHT22;70058;42.660;23.366;2023-08-30T00:37:09;23.10;52.60
80367;DHT22;70058;42.660;23.366;2023-08-30T00:39:37;23.10;52.40
80367;DHT22;70058;42.660;23.366;2023-08-30T00:42:05;23.10;51.80
80367;DHT22;70058;42.660;23.366;2023-08-30T00:44:33;23.00;52.30
80367;DHT22;70058;42.660;23.366;2023-08-30T00:46:59;22.80;51.90
80367;DHT22;70058;42.660;23.366;2023-08-30T00:49:25;22.90;51.80
80367;DHT22;70058;42.660;23.366;2023-08-30T00:51:51;22.80;52.50
80367;DHT22;70058;42.660;23.366;2023-08-30T00:54:18;22.80;52.20
80367;DHT22;70058;42.660;23.366;2023-08-30T00:56:43;22.70;52.90
80367;DHT22;70058;42.660;23.366;2023-08-30T00:59:10;22.80;52.90
80367;DHT22;70058;42.660;23.366;2023-08-30T01:01:37;22.80;52.60
80367;DHT22;70058;42.660;23.366;2023-08-30T01:04:04;22.80;51.80
80367;DHT22;70058;42.660;23.366;2023-08-30T01:06:30;22.70;51.50
80367;DHT22;70058;42.660;23.366;2023-08-30T01:08:55;22.80;51.70
80367;DHT22;70058;42.660;23.366;2023-08-30T01:11:42;22.90;51.20
80367;DHT22;70058;42.660;23.366;2023-08-30T01:14:13;23.10;50.80
80367;DHT22;70058;42.660;23.366;2023-08-30T01:16:40;23.10;50.70
80367;DHT22;70058;42.660;23.366;2023-08-30T01:22:14;23.10;50.80
80367;DHT22;70058;42.660;23.366;2023-08-30T01:25:00;23.20;50.30
80367;DHT22;70058;42.660;23.366;2023-08-30T01:27:29;23.20;50.20
80367;DHT22;70058;42.660;23.366;2023-08-30T01:29:58;23.30;49.80
80367;DHT22;70058;42.660;23.366;2023-08-30T01:32:25;23.40;48.90
80367;DHT22;70058;42.660;23.366;2023-08-30T01:34:55;23.50;48.70
80367;DHT22;70058;42.660;23.366;2023-08-30T01:37:22;23.40;49.00
80367;DHT22;70058;42.660;23.366;2023-08-30T01:39:49;23.40;49.40
80367;DHT22;70058;42.660;23.366;2023-08-30T01:42:15;23.30;49.60
80367;DHT22;70058;42.660;23.366;2023-08-30T01:44:42;23.30;49.00
80367;DHT22;70058;42.660;23.366;2023-08-30T01:47:10;23.20;49.80
80367;DHT22;70058;42.660;23.366;2023-08-30T01:49:36;23.20;49.70
80367;DHT22;70058;42.660;23.366;2023-08-30T01:52:06;23.20;50.20
80367;DHT22;70058;42.660;23.366;2023-08-30T01:54:32;23.20;50.40
80367;DHT22;70058;42.660;23.366;2023-08-30T01:56:58;23.20;50.10
80367;DHT22;70058;42.660;23.366;2023-08-30T01:59:24;23.30;49.50
80367;DHT22;70058;42.660;23.366;2023-08-30T02:01:51;23.30;49.70
80367;DHT22;70058;42.660;23.366;2023-08-30T02:04:17;23.40;49.60
80367;DHT22;70058;42.660;23.366;2023-08-30T02:06:48;23.50;49.60
80367;DHT22;70058;42.660;23.366;2023-08-30T02:09:28;23.40;49.80
80367;DHT22;70058;42.660;23.366;2023-08-30T02:11:55;23.40;49.40
80367;DHT22;70058;42.660;23.366;2023-08-30T02:14:26;23.30;49.30
80367;DHT22;70058;42.660;23.366;2023-08-30T02:16:52;23.40;49.50
80367;DHT22;70058;42.660;23.366;2023-08-30T02:19:20;23.40;49.00
80367;DHT22;70058;42.660;23.366;2023-08-30T02:21:47;23.40;48.80
80367;DHT22;70058;42.660;23.366;2023-08-30T02:24:13;23.30;49.30
80367;DHT22;70058;42.660;23.366;2023-08-30T02:26:39;23.20;50.10
80367;DHT22;70058;42.660;23.366;2023-08-30T02:29:05;23.10;50.20
80367;DHT22;70058;42.660;23.366;2023-08-30T02:31:31;23.10;50.50
80367;DHT22;70058;42.660;23.366;2023-08-30T02:33:56;23.00;50.80
80367;DHT22;70058;42.660;23.366;2023-08-30T02:36:22;22.80;51.10
80367;DHT22;70058;42.660;23.366;2023-08-30T02:38:48;22.70;51.90
80367;DHT22;70058;42.660;23.366;2023-08-30T02:41:13;22.60;51.80
80367;DHT22;70058;42.660;23.366;2023-08-30T02:43:39;22.60;52.20
80367;DHT22;70058;42.660;23.366;2023-08-30T02:46:04;22.50;52.60
80367;DHT22;70058;42.660;23.366;2023-08-30T02:48:31;22.50;52.30
80367;DHT22;70058;42.660;23.366;2023-08-30T02:50:57;22.40;52.40
80367;DHT22;70058;42.660;23.366;2023-08-30T02:53:23;22.40;52.30
80367;DHT22;70058;42.660;23.366;2023-08-30T02:55:49;22.40;52.00
80367;DHT22;70058;42.660;23.366;2023-08-30T02:58:15;22.30;52.60
80367;DHT22;70058;42.660;23.366;2023-08-30T03:00:40;22.30;52.40
80367;DHT22;70058;42.660;23.366;2023-08-30T03:03:06;22.30;53.00
80367;DHT22;70058;42.660;23.366;2023-08-30T03:05:32;22.30;52.90
80367;DHT22;70058;42.660;23.366;2023-08-30T03:07:57;22.10;53.30
80367;DHT22;70058;42.660;23.366;2023-08-30T03:10:23;22.10;53.40
80367;DHT22;70058;42.660;23.366;2023-08-30T03:12:49;22.00;53.50
80367;DHT22;70058;42.660;23.366;2023-08-30T03:15:14;21.90;53.60
80367;DHT22;70058;42.660;23.366;2023-08-30T03:17:40;22.00;53.30
80367;DHT22;70058;42.660;23.366;2023-08-30T03:20:06;22.00;53.50
80367;DHT22;70058;42.660;23.366;2023-08-30T03:22:32;21.90;53.70
80367;DHT22;70058;42.660;23.366;2023-08-30T03:24:58;21.90;53.40
80367;DHT22;70058;42.660;23.366;2023-08-30T03:27:24;22.00;53.20
80367;DHT22;70058;42.660;23.366;2023-08-30T03:29:50;21.90;53.10
80367;DHT22;70058;42.660;23.366;2023-08-30T03:32:17;21.90;52.60
80367;DHT22;70058;42.660;23.366;2023-08-30T03:34:46;21.90;52.30
80367;DHT22;70058;42.660;23.366;2023-08-30T03:37:15;21.90;52.20
80367;DHT22;70058;42.660;23.366;2023-08-30T03:39:42;21.90;52.30
80367;DHT22;70058;42.660;23.366;2023-08-30T03:42:07;21.90;52.00
80367;DHT22;70058;42.660;23.366;2023-08-30T03:44:33;21.80;51.80
80367;DHT22;70058;42.660;23.366;2023-08-30T03:46:59;21.90;51.50
80367;DHT22;70058;42.660;23.366;2023-08-30T03:49:25;21.80;52.20
80367;DHT22;70058;42.660;23.366;2023-08-30T03:51:50;21.70;52.40
80367;DHT22;70058;42.660;23.366;2023-08-30T03:54:16;21.70;52.00
80367;DHT22;70058;42.660;23.366;2023-08-30T03:56:43;21.80;51.90
80367;DHT22;70058;42.660;23.366;2023-08-30T03:59:09;21.70;51.90
80367;DHT22;70058;42.660;23.366;2023-08-30T04:01:34;21.70;53.00
80367;DHT22;70058;42.660;23.366;2023-08-30T04:04:00;21.70;53.60
80367;DHT22;70058;42.660;23.366;2023-08-30T04:06:25;21.70;53.60
80367;DHT22;70058;42.660;23.366;2023-08-30T04:08:51;21.80;53.40
80367;DHT22;70058;42.660;23.366;2023-08-30T04:11:17;21.90;53.20
80367;DHT22;70058;42.660;23.366;2023-08-30T04:13:42;21.90;53.60
80367;DHT22;70058;42.660;23.366;2023-08-30T04:16:08;22.00;53.20
80367;DHT22;70058;42.660;23.366;2023-08-30T04:18:34;22.10;53.20
80367;DHT22;70058;42.660;23.366;2023-08-30T04:20:59;22.20;52.80
80367;DHT22;70058;42.660;23.366;2023-08-30T04:23:28;22.50;52.30
80367;DHT22;70058;42.660;23.366;2023-08-30T04:25:54;22.90;51.50
80367;DHT22;70058;42.660;23.366;2023-08-30T04:28:20;23.40;50.40
80367;DHT22;70058;42.660;23.366;2023-08-30T04:30:46;23.90;49.00
80367;DHT22;70058;42.660;23.366;2023-08-30T04:33:11;24.30;47.10
80367;DHT22;70058;42.660;23.366;2023-08-30T04:35:37;24.50;46.50
80367;DHT22;70058;42.660;23.366;2023-08-30T04:38:03;24.70;46.60
80367;DHT22;70058;42.660;23.366;2023-08-30T04:40:29;24.80;47.20
80367;DHT22;70058;42.660;23.366;2023-08-30T04:42:57;24.70;47.60
80367;DHT22;70058;42.660;23.366;2023-08-30T04:45:23;24.40;48.30
80367;DHT22;70058;42.660;23.366;2023-08-30T04:47:48;24.30;48.30
80367;DHT22;70058;42.660;23.366;2023-08-30T04:50:14;24.20;48.30
80367;DHT22;70058;42.660;23.366;2023-08-30T04:52:40;24.10;48.10
80367;DHT22;70058;42.660;23.366;2023-08-30T04:55:06;24.10;47.60
80367;DHT22;70058;42.660;23.366;2023-08-30T04:57:32;24.00;47.10
80367;DHT22;70058;42.660;23.366;2023-08-30T04:59:57;23.90;46.60
80367;DHT22;70058;42.660;23.366;2023-08-30T05:02:23;23.90;46.00
80367;DHT22;70058;42.660;23.366;2023-08-30T05:04:51;23.70;46.20
80367;DHT22;70058;42.660;23.366;2023-08-30T05:07:18;23.60;46.40
80367;DHT22;70058;42.660;23.366;2023-08-30T05:09:43;23.40;46.40
80367;DHT22;70058;42.660;23.366;2023-08-30T05:12:09;23.40;46.80
80367;DHT22;70058;42.660;23.366;2023-08-30T05:14:34;23.50;46.90
80367;DHT22;70058;42.660;23.366;2023-08-30T05:17:00;23.70;46.10
80367;DHT22;70058;42.660;23.366;2023-08-30T05:19:26;23.70;46.60
80367;DHT22;70058;42.660;23.366;2023-08-30T05:21:51;23.70;46.00
80367;DHT22;70058;42.660;23.366;2023-08-30T05:24:21;23.80;46.10
80367;DHT22;70058;42.660;23.366;2023-08-30T05:26:46;24.00;46.30
80367;DHT22;70058;42.660;23.366;2023-08-30T05:29:15;24.30;45.20
80367;DHT22;70058;42.660;23.366;2023-08-30T05:31:41;24.50;44.40
80367;DHT22;70058;42.660;23.366;2023-08-30T05:34:07;24.80;43.90
80367;DHT22;70058;42.660;23.366;2023-08-30T05:36:33;25.00;43.50
80367;DHT22;70058;42.660;23.366;2023-08-30T05:38:59;25.10;43.00
80367;DHT22;70058;42.660;23.366;2023-08-30T05:41:24;25.10;43.10
80367;DHT22;70058;42.660;23.366;2023-08-30T05:43:51;25.20;43.10
80367;DHT22;70058;42.660;23.366;2023-08-30T05:46:17;25.30;42.60
80367;DHT22;70058;42.660;23.366;2023-08-30T05:48:42;25.50;41.90
80367;DHT22;70058;42.660;23.366;2023-08-30T05:51:08;25.70;41.50
80367;DHT22;70058;42.660;23.366;2023-08-30T05:53:34;25.80;41.20
80367;DHT22;70058;42.660;23.366;2023-08-30T05:56:00;25.80;41.30
80367;DHT22;70058;42.660;23.366;2023-08-30T05:58:25;25.90;41.40
80367;DHT22;70058;42.660;23.366;2023-08-30T06:00:51;26.20;41.20
80367;DHT22;70058;42.660;23.366;2023-08-30T06:03:17;26.40;40.00
80367;DHT22;70058;42.660;23.366;2023-08-30T06:05:42;26.50;39.30
80367;DHT22;70058;42.660;23.366;2023-08-30T06:08:08;26.70;40.20
80367;DHT22;70058;42.660;23.366;2023-08-30T06:10:35;26.70;38.70
80367;DHT22;70058;42.660;23.366;2023-08-30T06:13:01;26.70;39.20
80367;DHT22;70058;42.660;23.366;2023-08-30T06:15:28;26.90;40.20
80367;DHT22;70058;42.660;23.366;2023-08-30T06:17:54;27.10;38.80
80367;DHT22;70058;42.660;23.366;2023-08-30T06:20:19;27.40;37.30
80367;DHT22;70058;42.660;23.366;2023-08-30T06:22:45;27.50;36.50
80367;DHT22;70058;42.660;23.366;2023-08-30T06:25:11;27.50;37.10
80367;DHT22;70058;42.660;23.366;2023-08-30T06:27:42;28.60;36.30
80367;DHT22;70058;42.660;23.366;2023-08-30T06:30:12;30.50;32.80
80367;DHT22;70058;42.660;23.366;2023-08-30T06:32:37;32.40;30.20
80367;DHT22;70058;42.660;23.366;2023-08-30T06:35:03;34.30;28.10
80367;DHT22;70058;42.660;23.366;2023-08-30T06:37:29;36.20;26.10
80367;DHT22;70058;42.660;23.366;2023-08-30T06:39:55;37.70;24.60
80367;DHT22;70058;42.660;23.366;2023-08-30T06:42:21;39.10;23.40
80367;DHT22;70058;42.660;23.366;2023-08-30T06:44:46;40.00;22.60
80367;DHT22;70058;42.660;23.366;2023-08-30T06:47:12;40.80;21.80
80367;DHT22;70058;42.660;23.366;2023-08-30T06:49:37;39.90;21.10
80367;DHT22;70058;42.660;23.366;2023-08-30T06:52:03;40.20;21.70
80367;DHT22;70058;42.660;23.366;2023-08-30T06:54:33;40.00;22.00
80367;DHT22;70058;42.660;23.366;2023-08-30T06:57:00;39.20;22.30
80367;DHT22;70058;42.660;23.366;2023-08-30T06:59:27;38.80;22.90
80367;DHT22;70058;42.660;23.366;2023-08-30T07:01:53;37.90;23.30
80367;DHT22;70058;42.660;23.366;2023-08-30T07:04:19;36.90;24.30
80367;DHT22;70058;42.660;23.366;2023-08-30T07:06:45;36.90;24.30
80367;DHT22;70058;42.660;23.366;2023-08-30T07:09:11;37.80;23.90
80367;DHT22;70058;42.660;23.366;2023-08-30T07:11:37;37.60;23.90
80367;DHT22;70058;42.660;23.366;2023-08-30T07:14:03;37.40;24.90
80367;DHT22;70058;42.660;23.366;2023-08-30T07:16:30;38.70;23.90
80367;DHT22;70058;42.660;23.366;2023-08-30T07:18:57;39.50;22.80
80367;DHT22;70058;42.660;23.366;2023-08-30T07:21:23;40.40;22.50
80367;DHT22;70058;42.660;23.366;2023-08-30T07:23:49;41.30;21.30
80367;DHT22;70058;42.660;23.366;2023-08-30T07:26:15;42.50;20.40
80367;DHT22;70058;42.660;23.366;2023-08-30T07:28:41;43.40;19.80
80367;DHT22;70058;42.660;23.366;2023-08-30T07:31:06;44.20;19.30
80367;DHT22;70058;42.660;23.366;2023-08-30T07:33:32;45.00;18.80
80367;DHT22;70058;42.660;23.366;2023-08-30T07:35:58;45.90;18.50
80367;DHT22;70058;42.660;23.366;2023-08-30T07:38:24;46.30;17.70
80367;DHT22;70058;42.660;23.366;2023-08-30T07:40:50;46.70;17.60
80367;DHT22;70058;42.660;23.366;2023-08-30T07:43:15;47.10;17.00
80367;DHT22;70058;42.660;23.366;2023-08-30T07:45:41;47.60;16.20
80367;DHT22;70058;42.660;23.366;2023-08-30T07:48:07;47.80;16.20
80367;DHT22;70058;42.660;23.366;2023-08-30T07:50:32;48.20;16.40
80367;DHT22;70058;42.660;23.366;2023-08-30T07:52:58;48.40;15.90
80367;DHT22;70058;42.660;23.366;2023-08-30T07:55:24;48.80;16.00
80367;DHT22;70058;42.660;23.366;2023-08-30T07:57:49;49.20;16.10
80367;DHT22;70058;42.660;23.366;2023-08-30T08:00:15;49.30;15.80
80367;DHT22;70058;42.660;23.366;2023-08-30T08:02:41;49.70;15.10
80367;DHT22;70058;42.660;23.366;2023-08-30T08:05:07;49.70;15.20
80367;DHT22;70058;42.660;23.366;2023-08-30T08:07:33;49.70;15.20
80367;DHT22;70058;42.660;23.366;2023-08-30T08:09:59;49.60;15.10
80367;DHT22;70058;42.660;23.366;2023-08-30T08:12:26;49.70;15.50
80367;DHT22;70058;42.660;23.366;2023-08-30T08:14:52;49.00;15.60
80367;DHT22;70058;42.660;23.366;2023-08-30T08:17:17;49.10;14.80
80367;DHT22;70058;42.660;23.366;2023-08-30T08:19:43;49.30;15.00
80367;DHT22;70058;42.660;23.366;2023-08-30T08:22:09;49.80;14.60
80367;DHT22;70058;42.660;23.366;2023-08-30T08:24:35;50.20;14.40
80367;DHT22;70058;42.660;23.366;2023-08-30T08:27:00;50.10;14.50
80367;DHT22;70058;42.660;23.366;2023-08-30T08:29:27;50.10;14.50
80367;DHT22;70058;42.660;23.366;2023-08-30T08:31:55;50.30;14.60
80367;DHT22;70058;42.660;23.366;2023-08-30T08:34:21;50.90;14.30
80367;DHT22;70058;42.660;23.366;2023-08-30T08:36:47;51.00;14.20
80367;DHT22;70058;42.660;23.366;2023-08-30T08:39:12;51.10;14.10
80367;DHT22;70058;42.660;23.366;2023-08-30T08:41:41;51.00;14.10
80367;DHT22;70058;42.660;23.366;2023-08-30T08:44:08;50.50;14.00
80367;DHT22;70058;42.660;23.366;2023-08-30T08:46:38;49.80;14.10
80367;DHT22;70058;42.660;23.366;2023-08-30T08:49:15;49.60;15.50
80367;DHT22;70058;42.660;23.366;2023-08-30T08:51:41;50.20;14.20
80367;DHT22;70058;42.660;23.366;2023-08-30T08:54:11;50.50;13.90
80367;DHT22;70058;42.660;23.366;2023-08-30T08:56:38;50.50;14.10
80367;DHT22;70058;42.660;23.366;2023-08-30T08:59:04;49.80;14.50
80367;DHT22;70058;42.660;23.366;2023-08-30T09:01:34;49.00;14.90
80367;DHT22;70058;42.660;23.366;2023-08-30T09:04:07;49.00;14.80
80367;DHT22;70058;42.660;23.366;2023-08-30T09:06:34;49.30;14.50
80367;DHT22;70058;42.660;23.366;2023-08-30T09:09:01;49.80;14.50
80367;DHT22;70058;42.660;23.366;2023-08-30T09:11:28;50.00;14.10
80367;DHT22;70058;42.660;23.366;2023-08-30T09:13:54;50.10;14.10
80367;DHT22;70058;42.660;23.366;2023-08-30T09:16:20;49.90;14.00
80367;DHT22;70058;42.660;23.366;2023-08-30T09:19:05;49.70;14.10
80367;DHT22;70058;42.660;23.366;2023-08-30T09:21:32;50.00;14.00
80367;DHT22;70058;42.660;23.366;2023-08-30T09:24:03;50.70;14.00
80367;DHT22;70058;42.660;23.366;2023-08-30T09:26:30;50.40;13.70
80367;DHT22;70058;42.660;23.366;2023-08-30T09:31:33;49.90;13.80
80367;DHT22;70058;42.660;23.366;2023-08-30T09:33:59;51.10;13.70
80367;DHT22;70058;42.660;23.366;2023-08-30T09:36:32;51.50;13.20
80367;DHT22;70058;42.660;23.366;2023-08-30T09:38:58;52.00;13.30
80367;DHT22;70058;42.660;23.366;2023-08-30T09:41:24;51.90;12.80
80367;DHT22;70058;42.660;23.366;2023-08-30T09:43:50;51.40;13.40
80367;DHT22;70058;42.660;23.366;2023-08-30T09:46:16;50.20;14.00
80367;DHT22;70058;42.660;23.366;2023-08-30T09:48:42;46.10;15.30
80367;DHT22;70058;42.660;23.366;2023-08-30T09:51:10;45.30;16.70
80367;DHT22;70058;42.660;23.366;2023-08-30T09:53:42;45.80;16.50
80367;DHT22;70058;42.660;23.366;2023-08-30T09:56:11;47.00;16.00
80367;DHT22;70058;42.660;23.366;2023-08-30T09:58:39;47.80;15.20
80367;DHT22;70058;42.660;23.366;2023-08-30T10:01:06;47.90;14.80
80367;DHT22;70058;42.660;23.366;2023-08-30T10:03:34;48.10;15.00
80367;DHT22;70058;42.660;23.366;2023-08-30T10:06:00;47.80;15.10
80367;DHT22;70058;42.660;23.366;2023-08-30T10:08:29;47.00;15.30
80367;DHT22;70058;42.660;23.366;2023-08-30T10:10:58;46.10;15.90
80367;DHT22;70058;42.660;23.366;2023-08-30T10:13:25;44.50;16.80
80367;DHT22;70058;42.660;23.366;2023-08-30T10:15:56;44.70;17.10
80367;DHT22;70058;42.660;23.366;2023-08-30T10:18:23;45.30;16.60
80367;DHT22;70058;42.660;23.366;2023-08-30T10:20:54;46.20;16.10
80367;DHT22;70058;42.660;23.366;2023-08-30T10:23:21;46.10;16.50
80367;DHT22;70058;42.660;23.366;2023-08-30T10:25:49;45.50;16.80
80367;DHT22;70058;42.660;23.366;2023-08-30T10:28:16;45.50;17.10
80367;DHT22;70058;42.660;23.366;2023-08-30T10:30:43;45.20;16.80
80367;DHT22;70058;42.660;23.366;2023-08-30T10:33:13;44.30;17.60
80367;DHT22;70058;42.660;23.366;2023-08-30T10:35:50;42.90;18.60
80367;DHT22;70058;42.660;23.366;2023-08-30T10:38:26;41.40;19.50
80367;DHT22;70058;42.660;23.366;2023-08-30T10:40:53;40.20;20.60
80367;DHT22;70058;42.660;23.366;2023-08-30T10:43:28;38.70;21.10
80367;DHT22;70058;42.660;23.366;2023-08-30T10:46:03;37.80;22.60
80367;DHT22;70058;42.660;23.366;2023-08-30T10:48:40;37.30;22.30
80367;DHT22;70058;42.660;23.366;2023-08-30T10:51:35;37.00;23.20
80367;DHT22;70058;42.660;23.366;2023-08-30T10:56:48;36.10;23.60
80367;DHT22;70058;42.660;23.366;2023-08-30T10:59:22;36.00;23.80
80367;DHT22;70058;42.660;23.366;2023-08-30T11:01:49;35.90;23.90
80367;DHT22;70058;42.660;23.366;2023-08-30T11:04:16;35.80;23.90
80367;DHT22;70058;42.660;23.366;2023-08-30T11:06:46;35.90;23.40
80367;DHT22;70058;42.660;23.366;2023-08-30T11:09:20;35.90;23.90
80367;DHT22;70058;42.660;23.366;2023-08-30T11:11:47;35.80;23.80
80367;DHT22;70058;42.660;23.366;2023-08-30T11:14:13;35.90;23.80
80367;DHT22;70058;42.660;23.366;2023-08-30T11:16:39;36.00;23.00
80367;DHT22;70058;42.660;23.366;2023-08-30T11:19:07;35.80;22.40
80367;DHT22;70058;42.660;23.366;2023-08-30T11:21:35;35.80;23.10
80367;DHT22;70058;42.660;23.366;2023-08-30T11:24:03;35.90;22.60
80367;DHT22;70058;42.660;23.366;2023-08-30T11:26:29;35.90;23.10
80367;DHT22;70058;42.660;23.366;2023-08-30T11:28:56;35.70;21.40
80367;DHT22;70058;42.660;23.366;2023-08-30T11:31:23;35.60;20.90
80367;DHT22;70058;42.660;23.366;2023-08-30T11:33:55;35.50;20.90
80367;DHT22;70058;42.660;23.366;2023-08-30T11:36:23;35.30;21.50
80367;DHT22;70058;42.660;23.366;2023-08-30T11:38:50;35.20;21.30
80367;DHT22;70058;42.660;23.366;2023-08-30T11:41:16;35.10;21.30
80367;DHT22;70058;42.660;23.366;2023-08-30T11:43:43;35.10;21.50
80367;DHT22;70058;42.660;23.366;2023-08-30T11:46:09;35.10;21.50
80367;DHT22;70058;42.660;23.366;2023-08-30T11:48:35;34.90;21.50
80367;DHT22;70058;42.660;23.366;2023-08-30T11:51:01;34.60;22.00
80367;DHT22;70058;42.660;23.366;2023-08-30T11:53:27;34.40;22.00
80367;DHT22;70058;42.660;23.366;2023-08-30T11:55:53;34.20;22.00
80367;DHT22;70058;42.660;23.366;2023-08-30T11:58:19;34.00;21.80
80367;DHT22;70058;42.660;23.366;2023-08-30T12:00:46;33.70;22.50
80367;DHT22;70058;42.660;23.366;2023-08-30T12:03:15;33.50;22.70
80367;DHT22;70058;42.660;23.366;2023-08-30T12:05:47;33.30;22.50
80367;DHT22;70058;42.660;23.366;2023-08-30T12:08:20;32.90;22.60
80367;DHT22;70058;42.660;23.366;2023-08-30T12:10:46;32.70;23.00
80367;DHT22;70058;42.660;23.366;2023-08-30T12:13:22;32.50;22.90
80367;DHT22;70058;42.660;23.366;2023-08-30T12:15:48;32.40;23.30
80367;DHT22;70058;42.660;23.366;2023-08-30T12:18:14;32.40;23.60
80367;DHT22;70058;42.660;23.366;2023-08-30T12:20:50;32.50;23.50
80367;DHT22;70058;42.660;23.366;2023-08-30T12:23:27;32.60;23.70
80367;DHT22;70058;42.660;23.366;2023-08-30T12:26:19;32.80;23.60
80367;DHT22;70058;42.660;23.366;2023-08-30T12:28:45;33.00;22.70
80367;DHT22;70058;42.660;23.366;2023-08-30T12:31:11;33.00;22.60
80367;DHT22;70058;42.660;23.366;2023-08-30T12:33:37;32.80;22.00
80367;DHT22;70058;42.660;23.366;2023-08-30T12:36:05;33.00;22.20
80367;DHT22;70058;42.660;23.366;2023-08-30T12:38:31;33.00;22.20
80367;DHT22;70058;42.660;23.366;2023-08-30T12:40:57;33.10;22.40
80367;DHT22;70058;42.660;23.366;2023-08-30T12:43:23;32.80;21.80
80367;DHT22;70058;42.660;23.366;2023-08-30T12:45:49;32.80;22.00
80367;DHT22;70058;42.660;23.366;2023-08-30T12:48:16;32.80;22.20
80367;DHT22;70058;42.660;23.366;2023-08-30T12:50:44;32.90;22.00
80367;DHT22;70058;42.660;23.366;2023-08-30T12:53:10;32.60;21.20
80367;DHT22;70058;42.660;23.366;2023-08-30T12:55:36;32.80;22.10
80367;DHT22;70058;42.660;23.366;2023-08-30T12:58:06;32.80;22.10
80367;DHT22;70058;42.660;23.366;2023-08-30T13:00:32;32.50;21.20
80367;DHT22;70058;42.660;23.366;2023-08-30T13:02:59;32.30;21.40
80367;DHT22;70058;42.660;23.366;2023-08-30T13:05:25;32.30;21.90
80367;DHT22;70058;42.660;23.366;2023-08-30T13:07:50;32.50;22.10
80367;DHT22;70058;42.660;23.366;2023-08-30T13:10:16;32.60;21.80
80367;DHT22;70058;42.660;23.366;2023-08-30T13:12:42;32.50;21.10
80367;DHT22;70058;42.660;23.366;2023-08-30T13:15:08;32.50;21.80
80367;DHT22;70058;42.660;23.366;2023-08-30T13:17:34;32.50;21.60
80367;DHT22;70058;42.660;23.366;2023-08-30T13:20:00;32.60;21.80
80367;DHT22;70058;42.660;23.366;2023-08-30T13:22:26;32.60;21.40
80367;DHT22;70058;42.660;23.366;2023-08-30T13:24:52;32.80;20.80
80367;DHT22;70058;42.660;23.366;2023-08-30T13:27:18;32.80;21.20
80367;DHT22;70058;42.660;23.366;2023-08-30T13:29:44;32.80;20.60
80367;DHT22;70058;42.660;23.366;2023-08-30T13:32:10;33.00;20.40
80367;DHT22;70058;42.660;23.366;2023-08-30T13:34:35;33.00;20.50
80367;DHT22;70058;42.660;23.366;2023-08-30T13:37:01;32.60;20.30
80367;DHT22;70058;42.660;23.366;2023-08-30T13:39:27;32.60;20.70
80367;DHT22;70058;42.660;23.366;2023-08-30T13:41:52;32.60;20.80
80367;DHT22;70058;42.660;23.366;2023-08-30T13:44:18;32.70;20.10
80367;DHT22;70058;42.660;23.366;2023-08-30T13:46:44;32.70;20.40
80367;DHT22;70058;42.660;23.366;2023-08-30T13:49:10;32.70;21.00
80367;DHT22;70058;42.660;23.366;2023-08-30T13:51:35;32.50;20.70
80367;DHT22;70058;42.660;23.366;2023-08-30T13:54:02;32.40;20.90
80367;DHT22;70058;42.660;23.366;2023-08-30T13:56:27;32.40;21.10
80367;DHT22;70058;42.660;23.366;2023-08-30T13:58:56;32.30;20.80
80367;DHT22;70058;42.660;23.366;2023-08-30T14:01:22;32.30;21.00
80367;DHT22;70058;42.660;23.366;2023-08-30T14:03:47;32.20;20.80
80367;DHT22;70058;42.660;23.366;2023-08-30T14:06:13;32.20;20.90
80367;DHT22;70058;42.660;23.366;2023-08-30T14:08:39;32.10;21.00
80367;DHT22;70058;42.660;23.366;2023-08-30T14:11:05;32.10;21.50
80367;DHT22;70058;42.660;23.366;2023-08-30T14:13:30;31.90;22.00
80367;DHT22;70058;42.660;23.366;2023-08-30T14:16:02;31.70;22.30
80367;DHT22;70058;42.660;23.366;2023-08-30T14:18:29;31.50;22.00
80367;DHT22;70058;42.660;23.366;2023-08-30T14:20:59;31.50;22.40
80367;DHT22;70058;42.660;23.366;2023-08-30T14:23:25;31.10;22.30
80367;DHT22;70058;42.660;23.366;2023-08-30T14:26:05;31.00;22.70
80367;DHT22;70058;42.660;23.366;2023-08-30T14:28:35;30.90;22.60
80367;DHT22;70058;42.660;23.366;2023-08-30T14:31:01;31.00;23.00
80367;DHT22;70058;42.660;23.366;2023-08-30T14:33:29;30.70;22.50
80367;DHT22;70058;42.660;23.366;2023-08-30T14:35:55;30.70;22.70
80367;DHT22;70058;42.660;23.366;2023-08-30T14:38:22;30.40;22.70
80367;DHT22;70058;42.660;23.366;2023-08-30T14:40:58;30.60;22.90
80367;DHT22;70058;42.660;23.366;2023-08-30T14:43:24;30.70;22.80
80367;DHT22;70058;42.660;23.366;2023-08-30T14:45:49;30.60;23.00
80367;DHT22;70058;42.660;23.366;2023-08-30T14:48:15;30.70;22.90
80367;DHT22;70058;42.660;23.366;2023-08-30T14:50:42;30.70;24.10
80367;DHT22;70058;42.660;23.366;2023-08-30T14:53:09;30.80;25.30
80367;DHT22;70058;42.660;23.366;2023-08-30T14:55:34;30.70;26.90
80367;DHT22;70058;42.660;23.366;2023-08-30T14:58:00;30.80;27.20
80367;DHT22;70058;42.660;23.366;2023-08-30T15:00:26;30.70;27.30
80367;DHT22;70058;42.660;23.366;2023-08-30T15:02:51;30.60;27.60
80367;DHT22;70058;42.660;23.366;2023-08-30T15:05:17;30.60;27.70
80367;DHT22;70058;42.660;23.366;2023-08-30T15:07:43;30.50;27.90
80367;DHT22;70058;42.660;23.366;2023-08-30T15:10:09;30.40;28.20
80367;DHT22;70058;42.660;23.366;2023-08-30T15:12:35;30.20;28.10
80367;DHT22;70058;42.660;23.366;2023-08-30T15:15:02;30.10;28.10
80367;DHT22;70058;42.660;23.366;2023-08-30T15:17:28;30.00;28.40
80367;DHT22;70058;42.660;23.366;2023-08-30T15:19:53;30.10;28.20
80367;DHT22;70058;42.660;23.366;2023-08-30T15:22:20;30.10;28.30